Time;durP1;ratioP1;P1;durP2;ratioP2;P2;SDS_P1;SDS_P2;PMS_P1;PMS_P2;Temp;Humidity;BMP_temperature;BMP_pressure;BME280_temperature;BME280_humidity;BME280_pressure;Samples;Min_cycle;Max_cycle;Signal;HPM_P1;HPM_P2
2021/07/21 00:00:27;;;;;;;3.83;3.00;;;18.40;91.30;;;;;;4991858;28;21106;-83
2021/07/21 00:02:53;;;;;;;4.93;3.23;;;18.40;92.10;;;;;;4992476;28;20629;-83
2021/07/21 00:05:21;;;;;;;4.50;2.90;;;18.40;91.80;;;;;;4992247;28;20566;-83
2021/07/21 00:07:47;;;;;;;3.67;3.20;;;18.40;92.10;;;;;;4991041;28;20602;-83
2021/07/21 00:10:16;;;;;;;4.53;3.10;;;18.40;92.30;;;;;;4996235;28;20996;-83
2021/07/21 00:15:30;;;;;;;4.30;3.43;;;18.30;92.80;;;;;;4990808;28;20902;-82
2021/07/21 00:18:01;;;;;;;3.93;3.50;;;18.30;93.00;;;;;;4992007;28;20594;-83
2021/07/21 00:20:29;;;;;;;6.00;3.07;;;18.30;93.20;;;;;;4990825;28;20574;-83
2021/07/21 00:22:55;;;;;;;3.70;3.00;;;18.20;93.30;;;;;;4994160;28;20972;-83
2021/07/21 00:25:20;;;;;;;6.50;3.57;;;18.20;93.60;;;;;;4980375;28;20657;-84
2021/07/21 00:27:46;;;;;;;3.77;3.40;;;18.20;93.70;;;;;;5000003;28;20202;-83
2021/07/21 00:30:15;;;;;;;5.23;3.87;;;18.20;94.00;;;;;;4985616;28;20590;-83
2021/07/21 00:32:42;;;;;;;5.63;3.50;;;18.20;94.30;;;;;;4991057;28;20179;-83
2021/07/21 00:35:10;;;;;;;6.20;3.43;;;18.10;94.30;;;;;;4986932;28;20713;-83
2021/07/21 00:37:37;;;;;;;3.73;2.80;;;18.10;94.70;;;;;;4986553;28;20651;-83
2021/07/21 00:40:10;;;;;;;5.20;3.40;;;18.10;95.00;;;;;;4986860;28;20589;-83
2021/07/21 00:42:37;;;;;;;5.17;3.00;;;18.10;95.50;;;;;;4987023;28;20627;-83
2021/07/21 00:45:04;;;;;;;4.50;3.00;;;18.10;95.40;;;;;;5012999;28;20593;-83
2021/07/21 00:47:30;;;;;;;4.17;3.77;;;18.00;95.50;;;;;;5000605;28;20617;-83
2021/07/21 00:49:57;;;;;;;4.13;3.17;;;18.00;95.70;;;;;;4990294;28;20590;-83
2021/07/21 00:52:23;;;;;;;3.83;3.10;;;17.90;95.90;;;;;;4982599;28;20710;-83
2021/07/21 00:54:49;;;;;;;4.17;2.87;;;17.90;96.20;;;;;;4990513;28;20178;-83
2021/07/21 00:57:17;;;;;;;6.40;4.07;;;17.90;96.60;;;;;;5005355;28;20636;-83
2021/07/21 00:59:44;;;;;;;5.17;3.57;;;17.90;96.90;;;;;;4983722;28;20693;-83
2021/07/21 01:02:10;;;;;;;5.43;3.87;;;17.90;97.20;;;;;;4991868;28;20610;-82
2021/07/21 01:04:37;;;;;;;5.07;3.67;;;17.90;97.40;;;;;;4991083;28;20624;-83
2021/07/21 01:07:08;;;;;;;4.80;3.60;;;17.90;97.70;;;;;;4990632;28;20569;-83
2021/07/21 01:09:38;;;;;;;6.40;3.87;;;17.90;98.20;;;;;;4978005;28;20622;-84
2021/07/21 01:12:47;;;;;;;4.20;3.80;;;17.80;98.30;;;;;;4995820;28;20590;-83
2021/07/21 01:15:18;;;;;;;4.50;3.73;;;17.80;99.10;;;;;;4995899;28;20578;-83
2021/07/21 01:17:48;;;;;;;5.37;4.43;;;17.80;98.80;;;;;;4995193;28;20624;-84
2021/07/21 01:20:20;;;;;;;5.90;3.77;;;17.80;99.00;;;;;;4994996;28;20578;-84
2021/07/21 01:22:57;;;;;;;9.87;4.17;;;17.80;99.40;;;;;;4982665;28;20630;-84
2021/07/21 01:25:28;;;;;;;4.20;3.40;;;17.80;99.50;;;;;;4978111;28;20574;-84
2021/07/21 01:28:07;;;;;;;4.80;3.67;;;17.70;99.80;;;;;;4994966;28;20697;-84
2021/07/21 01:30:47;;;;;;;4.30;3.40;;;17.70;99.80;;;;;;4993917;28;20605;-84
2021/07/21 01:33:16;;;;;;;6.60;4.03;;;17.70;99.90;;;;;;4995039;28;21132;-84
2021/07/21 01:35:58;;;;;;;5.10;3.50;;;17.60;99.90;;;;;;4993523;28;20574;-84
2021/07/21 01:38:32;;;;;;;4.63;3.87;;;17.60;99.90;;;;;;4992767;28;20616;-83
2021/07/21 01:41:06;;;;;;;7.47;4.83;;;17.50;99.90;;;;;;4993309;28;20631;-84
2021/07/21 01:43:34;;;;;;;4.87;4.03;;;17.50;99.90;;;;;;4977136;28;20723;-84
2021/07/21 01:46:02;;;;;;;4.70;3.60;;;17.50;99.90;;;;;;4993425;28;20585;-84
2021/07/21 01:48:34;;;;;;;5.27;3.97;;;17.50;99.90;;;;;;4977091;28;20602;-84
2021/07/21 01:51:01;;;;;;;5.40;3.73;;;17.50;99.90;;;;;;4993456;28;20623;-84
2021/07/21 01:53:31;;;;;;;5.23;3.50;;;17.50;99.90;;;;;;4994581;28;20574;-84
2021/07/21 01:56:07;;;;;;;5.97;4.07;;;17.50;99.90;;;;;;4993333;28;20581;-83
2021/07/21 01:58:35;;;;;;;4.93;3.80;;;17.50;99.90;;;;;;4995871;28;20622;-82
2021/07/21 02:01:17;;;;;;;3.90;3.50;;;17.50;99.90;;;;;;4977285;28;20574;-82
2021/07/21 02:03:45;;;;;;;5.23;4.00;;;17.50;99.90;;;;;;4993180;28;20622;-82
2021/07/21 02:06:20;;;;;;;4.27;3.63;;;17.40;99.90;;;;;;4977939;28;20572;-83
2021/07/21 02:08:53;;;;;;;5.40;3.77;;;17.40;99.90;;;;;;4994233;28;20968;-83
2021/07/21 02:11:24;;;;;;;7.03;3.80;;;17.40;99.90;;;;;;4992489;28;20586;-82
2021/07/21 02:13:55;;;;;;;6.17;4.07;;;17.40;99.90;;;;;;4993040;28;20578;-82
2021/07/21 02:16:28;;;;;;;5.77;4.47;;;17.40;99.90;;;;;;4976497;28;20597;-83
2021/07/21 02:18:56;;;;;;;5.40;3.93;;;17.30;99.90;;;;;;4993746;28;20637;-82
2021/07/21 02:21:26;;;;;;;4.97;4.30;;;17.30;99.90;;;;;;4993074;28;20586;-82
2021/07/21 02:23:53;;;;;;;5.47;4.03;;;17.30;99.90;;;;;;4977445;28;20629;-82
2021/07/21 02:26:40;;;;;;;4.63;3.40;;;17.30;99.90;;;;;;4993506;28;20670;-82
2021/07/21 02:29:08;;;;;;;4.63;3.57;;;17.30;99.90;;;;;;4993516;28;20609;-82
2021/07/21 02:32:13;;;;;;;3.47;3.10;;;17.20;99.90;;;;;;4976403;28;20578;-82
2021/07/21 02:34:43;;;;;;;5.00;3.60;;;17.20;99.90;;;;;;4992812;28;20570;-82
2021/07/21 02:37:12;;;;;;;4.63;3.97;;;17.20;99.90;;;;;;4999580;28;20570;-82
2021/07/21 02:39:46;;;;;;;5.40;4.07;;;17.20;99.90;;;;;;4993038;28;20569;-83
2021/07/21 02:42:13;;;;;;;3.80;3.40;;;17.20;99.90;;;;;;4996646;28;20626;-83
2021/07/21 02:44:44;;;;;;;4.10;3.63;;;17.20;99.90;;;;;;5011134;28;20593;-83
2021/07/21 02:47:12;;;;;;;6.25;3.22;;;17.20;99.90;;;;;;5012065;28;20595;-82
2021/07/21 02:49:40;;;;;;;4.53;3.57;;;17.10;99.90;;;;;;5011228;28;20179;-83
2021/07/21 02:52:20;;;;;;;4.57;3.80;;;17.10;99.90;;;;;;5011822;28;20608;-83
2021/07/21 02:55:05;;;;;;;7.03;4.47;;;17.00;99.90;;;;;;4996446;28;20694;-83
2021/07/21 02:58:20;;;;;;;5.20;3.63;;;17.00;99.90;;;;;;4976792;28;20626;-84
2021/07/21 03:00:49;;;;;;;4.90;2.90;;;17.00;99.90;;;;;;4986445;28;20606;-84
2021/07/21 03:03:20;;;;;;;6.37;3.57;;;16.90;99.90;;;;;;4992938;28;20621;-82
2021/07/21 03:05:49;;;;;;;5.87;3.70;;;16.90;99.90;;;;;;4993399;28;21098;-83
2021/07/21 03:08:29;;;;;;;4.53;3.43;;;16.90;99.90;;;;;;4993276;28;20606;-83
2021/07/21 03:11:02;;;;;;;5.60;3.43;;;16.90;99.90;;;;;;4976442;28;20585;-82
2021/07/21 03:13:45;;;;;;;4.63;2.77;;;16.90;99.90;;;;;;4982055;28;20677;-83
2021/07/21 03:16:14;;;;;;;3.27;2.80;;;16.80;99.90;;;;;;4959981;28;20577;-83
2021/07/21 03:18:53;;;;;;;6.70;3.47;;;16.80;99.90;;;;;;4976756;28;20625;-83
2021/07/21 03:21:26;;;;;;;4.80;3.37;;;16.80;99.90;;;;;;4991655;28;20585;-82
2021/07/21 03:24:02;;;;;;;3.30;2.70;;;16.80;99.90;;;;;;4991328;28;20622;-77
2021/07/21 03:26:48;;;;;;;6.23;2.60;;;16.80;99.90;;;;;;4992439;28;20578;-77
2021/07/21 03:29:20;;;;;;;4.37;3.90;;;16.80;99.90;;;;;;4991349;28;20760;-77
2021/07/21 03:31:48;;;;;;;4.77;3.23;;;16.70;99.90;;;;;;4989811;28;20574;-77
2021/07/21 03:34:21;;;;;;;4.32;3.75;;;16.70;99.90;;;;;;4991806;28;20566;-75
2021/07/21 03:36:58;;;;;;;6.27;3.13;;;16.70;99.90;;;;;;4990670;28;20187;-74
2021/07/21 03:39:26;;;;;;;4.87;3.37;;;16.70;99.90;;;;;;4992396;28;20598;-74
2021/07/21 03:42:17;;;;;;;5.00;3.80;;;16.70;99.90;;;;;;4984000;28;20638;-74
2021/07/21 03:44:46;;;;;;;6.83;4.07;;;16.70;99.90;;;;;;4990928;28;20934;-75
2021/07/21 03:47:16;;;;;;;4.63;3.25;;;16.70;99.90;;;;;;4992001;28;20927;-75
2021/07/21 03:49:45;;;;;;;4.77;3.70;;;16.70;99.90;;;;;;4991881;28;20190;-74
2021/07/21 03:52:17;;;;;;;3.47;3.00;;;16.70;99.90;;;;;;4974518;28;20955;-74
2021/07/21 03:55:03;;;;;;;5.07;3.93;;;16.60;99.90;;;;;;4990972;28;20697;-75
2021/07/21 03:57:45;;;;;;;4.00;3.50;;;16.60;99.90;;;;;;4990473;28;20610;-75
2021/07/21 04:00:16;;;;;;;4.57;3.28;;;16.70;99.90;;;;;;4991865;28;20606;-76
2021/07/21 04:02:55;;;;;;;4.37;3.97;;;16.70;99.90;;;;;;4991877;28;20205;-75
2021/07/21 04:05:26;;;;;;;3.80;2.63;;;16.70;99.90;;;;;;4990763;28;20583;-76
2021/07/21 04:07:57;;;;;;;5.00;4.00;;;16.70;99.90;;;;;;4991953;28;20972;-75
2021/07/21 04:10:26;;;;;;;4.43;3.30;;;16.70;99.90;;;;;;4990496;28;20673;-75
2021/07/21 04:12:54;;;;;;;4.25;3.42;;;16.70;99.90;;;;;;4992122;28;20656;-75
2021/07/21 04:15:28;;;;;;;5.30;3.55;;;16.70;99.90;;;;;;4974598;28;20208;-76
2021/07/21 04:18:09;;;;;;;4.10;3.60;;;16.70;99.90;;;;;;4989743;28;20281;-76
2021/07/21 04:20:35;;;;;;;4.60;3.93;;;16.70;99.90;;;;;;4991005;28;20570;-76
2021/07/21 04:23:06;;;;;;;6.07;4.00;;;16.70;99.90;;;;;;4990575;28;20649;-74
2021/07/21 04:25:33;;;;;;;3.40;2.93;;;16.80;99.90;;;;;;4989842;28;21042;-75
2021/07/21 04:28:07;;;;;;;3.93;3.40;;;16.80;99.90;;;;;;4989998;28;21045;-75
2021/07/21 04:30:42;;;;;;;4.50;3.50;;;16.80;99.90;;;;;;4958806;28;20582;-75
2021/07/21 04:33:09;;;;;;;6.13;4.30;;;16.90;99.90;;;;;;4974201;28;21367;-75
2021/07/21 04:35:38;;;;;;;5.80;4.13;;;16.90;99.90;;;;;;4990329;28;20614;-76
2021/07/21 04:38:09;;;;;;;3.27;2.80;;;16.90;99.90;;;;;;4990533;28;20606;-76
2021/07/21 04:40:58;;;;;;;4.83;4.13;;;17.00;99.90;;;;;;4962613;28;20618;-75
2021/07/21 04:43:30;;;;;;;4.50;3.60;;;17.00;99.90;;;;;;4994845;28;20622;-76
2021/07/21 04:45:58;;;;;;;7.40;3.70;;;17.00;99.90;;;;;;4994079;28;20574;-76
2021/07/21 04:48:24;;;;;;;8.87;3.63;;;17.10;99.90;;;;;;4994047;28;20652;-76
2021/07/21 04:51:01;;;;;;;5.47;3.27;;;17.10;99.90;;;;;;4993745;28;20592;-76
2021/07/21 04:53:27;;;;;;;6.30;3.57;;;17.10;99.90;;;;;;4994177;28;21002;-76
2021/07/21 04:55:53;;;;;;;3.90;3.37;;;17.20;99.90;;;;;;4993973;28;20669;-75
2021/07/21 04:58:20;;;;;;;3.70;3.00;;;17.30;99.90;;;;;;4993803;28;20633;-75
2021/07/21 05:00:51;;;;;;;2.77;2.50;;;17.40;99.90;;;;;;4993702;28;21145;-75
2021/07/21 05:03:19;;;;;;;5.57;2.90;;;17.60;99.90;;;;;;4993714;28;20630;-76
2021/07/21 05:05:51;;;;;;;3.87;3.00;;;17.90;99.90;;;;;;4995285;28;20566;-76
2021/07/21 05:08:22;;;;;;;3.37;2.70;;;18.10;99.90;;;;;;4993929;28;21214;-76
2021/07/21 05:11:18;;;;;;;6.70;4.30;;;18.20;99.90;;;;;;4984414;28;20657;-76
2021/07/21 05:13:44;;;;;;;3.13;2.50;;;18.30;99.90;;;;;;4977317;28;20648;-76
2021/07/21 05:16:13;;;;;;;5.63;3.10;;;18.40;99.90;;;;;;4993954;28;21143;-75
2021/07/21 05:18:39;;;;;;;5.67;3.33;;;18.40;99.90;;;;;;4993075;28;20672;-75
2021/07/21 05:21:11;;;;;;;5.73;3.20;;;18.40;99.90;;;;;;4976968;28;20614;-75
2021/07/21 05:23:39;;;;;;;3.93;3.03;;;18.50;99.90;;;;;;4977513;28;20991;-76
2021/07/21 05:26:07;;;;;;;6.57;3.30;;;18.50;99.90;;;;;;4994493;28;20574;-76
2021/07/21 05:28:35;;;;;;;5.13;3.43;;;18.50;99.90;;;;;;4994651;28;20618;-76
2021/07/21 05:31:09;;;;;;;6.17;3.97;;;18.60;99.90;;;;;;4993313;28;20569;-75
2021/07/21 05:33:55;;;;;;;3.03;2.50;;;18.70;99.90;;;;;;4993487;28;20615;-75
2021/07/21 05:36:21;;;;;;;4.00;3.30;;;18.80;99.90;;;;;;4993348;28;20590;-75
2021/07/21 05:38:49;;;;;;;3.80;2.97;;;19.00;99.90;;;;;;4993024;28;20617;-75
2021/07/21 05:41:16;;;;;;;4.87;3.80;;;19.10;99.90;;;;;;4992989;28;20625;-75
2021/07/21 05:43:44;;;;;;;5.57;3.57;;;19.20;99.90;;;;;;4993162;28;20716;-75
2021/07/21 05:46:11;;;;;;;3.67;3.07;;;19.30;99.90;;;;;;4992920;28;21180;-75
2021/07/21 05:48:40;;;;;;;4.23;3.33;;;19.30;99.90;;;;;;4994302;28;20601;-75
2021/07/21 05:51:25;;;;;;;3.03;2.73;;;19.40;99.90;;;;;;4986367;28;20597;-76
2021/07/21 05:54:01;;;;;;;5.77;2.97;;;19.50;99.90;;;;;;4975696;28;20684;-74
2021/07/21 05:56:29;;;;;;;2.97;2.33;;;19.60;99.90;;;;;;4992597;28;20566;-74
2021/07/21 05:58:59;;;;;;;5.17;2.83;;;19.80;99.90;;;;;;4994063;28;20637;-75
2021/07/21 06:01:27;;;;;;;4.87;3.07;;;20.30;99.90;;;;;;4986324;28;20614;-75
2021/07/21 06:03:53;;;;;;;3.10;2.67;;;21.00;99.90;;;;;;4978658;28;20633;-75
2021/07/21 06:06:39;;;;;;;3.90;2.83;;;22.00;99.90;;;;;;4997052;28;20171;-74
2021/07/21 06:09:23;;;;;;;2.77;2.50;;;23.30;99.90;;;;;;5006148;28;20665;-74
2021/07/21 06:11:57;;;;;;;4.80;2.30;;;24.60;99.90;;;;;;5002250;28;20629;-74
2021/07/21 06:14:23;;;;;;;4.23;3.00;;;25.70;99.90;;;;;;4965644;28;20626;-74
2021/07/21 06:16:52;;;;;;;2.93;2.07;;;26.70;99.90;;;;;;4978360;28;20605;-76
2021/07/21 06:19:19;;;;;;;3.20;2.40;;;27.70;99.90;;;;;;4982945;28;21011;-74
2021/07/21 06:21:46;;;;;;;3.03;2.20;;;28.60;99.90;;;;;;4991793;28;20938;-74
2021/07/21 06:24:47;;;;;;;4.53;2.27;;;29.50;99.90;;;;;;4993133;28;20629;-74
2021/07/21 06:27:24;;;;;;;4.63;2.53;;;30.40;99.90;;;;;;4992001;28;20643;-75
2021/07/21 06:29:56;;;;;;;3.13;2.20;;;31.10;98.80;;;;;;4992987;28;20613;-76
2021/07/21 06:32:22;;;;;;;3.87;2.10;;;31.60;96.70;;;;;;4992939;28;20611;-74
2021/07/21 06:34:49;;;;;;;2.73;2.20;;;32.00;94.30;;;;;;4961580;28;20594;-75
2021/07/21 06:37:16;;;;;;;5.27;2.43;;;32.30;92.70;;;;;;4972188;28;20680;-75
2021/07/21 06:39:42;;;;;;;3.67;2.57;;;32.50;90.40;;;;;;4971706;28;20600;-75
2021/07/21 06:42:10;;;;;;;3.60;2.13;;;32.50;84.90;;;;;;4940412;28;21005;-74
2021/07/21 06:44:40;;;;;;;4.57;2.90;;;32.50;84.60;;;;;;4971843;28;20600;-74
2021/07/21 06:47:20;;;;;;;3.80;3.40;;;32.50;81.70;;;;;;4955703;28;20590;-75
2021/07/21 06:49:51;;;;;;;2.90;1.93;;;32.70;80.90;;;;;;4955745;28;20593;-75
2021/07/21 06:52:19;;;;;;;4.50;2.97;;;33.10;79.60;;;;;;4972007;28;21168;-76
2021/07/21 06:54:45;;;;;;;6.43;2.97;;;33.70;79.00;;;;;;4973764;28;20602;-74
2021/07/21 06:57:43;;;;;;;3.40;2.37;;;34.20;77.60;;;;;;4982734;28;20710;-75
2021/07/21 07:00:35;;;;;;;6.47;2.00;;;34.30;73.70;;;;;;4991892;28;20614;-75
2021/07/21 07:03:03;;;;;;;4.73;2.20;;;34.30;71.30;;;;;;4991723;28;20683;-74
2021/07/21 07:05:41;;;;;;;4.43;1.87;;;34.40;69.20;;;;;;4991575;28;20586;-75
2021/07/21 07:08:25;;;;;;;3.90;2.03;;;34.60;67.90;;;;;;4992197;28;20648;-75
2021/07/21 07:11:27;;;;;;;4.07;2.60;;;34.90;67.20;;;;;;4915608;29;21327;-75
2021/07/21 07:13:52;;;;;;;2.07;1.77;;;35.40;66.30;;;;;;4973290;28;20601;-74
2021/07/21 07:16:18;;;;;;;2.53;1.97;;;35.80;64.90;;;;;;5004995;28;20179;-75
2021/07/21 07:18:44;;;;;;;2.70;2.10;;;36.10;63.70;;;;;;4976234;28;20203;-75
2021/07/21 07:21:10;;;;;;;3.10;2.10;;;36.30;61.30;;;;;;5006044;28;20183;-75
2021/07/21 07:23:36;;;;;;;2.13;1.40;;;36.50;59.80;;;;;;4984758;28;20285;-75
2021/07/21 07:26:02;;;;;;;2.63;1.73;;;36.90;59.00;;;;;;4990944;28;20588;-74
2021/07/21 07:28:28;;;;;;;3.13;1.50;;;37.10;57.20;;;;;;4991017;28;20599;-75
2021/07/21 07:30:54;;;;;;;2.00;1.47;;;37.30;55.90;;;;;;4991547;28;20566;-75
2021/07/21 07:33:22;;;;;;;2.27;1.40;;;37.40;54.60;;;;;;4991866;28;20187;-74
2021/07/21 07:35:48;;;;;;;2.23;1.67;;;37.40;54.30;;;;;;4992033;28;20262;-75
2021/07/21 07:38:14;;;;;;;2.57;1.63;;;37.40;53.40;;;;;;4991967;28;20704;-76
2021/07/21 07:40:42;;;;;;;2.40;1.70;;;37.40;51.50;;;;;;4990714;28;20179;-76
2021/07/21 07:43:09;;;;;;;2.87;1.43;;;37.00;50.60;;;;;;4990340;28;20625;-75
2021/07/21 07:45:35;;;;;;;2.60;1.70;;;36.90;50.60;;;;;;4992066;28;20709;-75
2021/07/21 07:48:02;;;;;;;2.30;1.80;;;36.80;50.80;;;;;;4991832;28;20614;-75
2021/07/21 07:50:27;;;;;;;1.97;1.47;;;37.00;49.90;;;;;;4990644;28;20585;-76
2021/07/21 07:52:53;;;;;;;2.20;1.40;;;37.10;50.20;;;;;;5007150;28;20578;-75
2021/07/21 07:55:19;;;;;;;2.40;1.83;;;37.40;50.10;;;;;;4990676;28;20243;-75
2021/07/21 07:57:45;;;;;;;4.13;2.33;;;37.20;47.70;;;;;;4991426;28;20568;-75
2021/07/21 08:00:11;;;;;;;2.50;1.80;;;37.00;47.20;;;;;;4990233;28;20266;-75
2021/07/21 08:02:41;;;;;;;3.53;1.60;;;36.80;47.40;;;;;;4991702;28;20210;-75
2021/07/21 08:05:07;;;;;;;1.70;1.40;;;36.50;46.70;;;;;;4991877;28;20580;-75
2021/07/21 08:07:35;;;;;;;2.50;1.50;;;36.60;47.20;;;;;;4991510;28;20195;-75
2021/07/21 08:10:02;;;;;;;2.10;1.50;;;36.60;47.00;;;;;;4991629;28;20689;-75
2021/07/21 08:12:28;;;;;;;2.57;1.77;;;36.70;46.90;;;;;;4991770;28;20582;-75
2021/07/21 08:14:54;;;;;;;2.30;1.70;;;37.00;47.50;;;;;;4990104;28;20604;-74
2021/07/21 08:17:20;;;;;;;2.63;1.60;;;37.20;45.60;;;;;;4993187;28;20205;-76
2021/07/21 08:19:46;;;;;;;4.40;1.50;;;37.40;46.00;;;;;;4995253;28;20174;-75
2021/07/21 08:22:12;;;;;;;2.47;1.73;;;37.70;46.10;;;;;;4995393;28;20202;-75
2021/07/21 08:24:38;;;;;;;1.73;1.23;;;37.80;44.70;;;;;;4995991;28;20664;-75
2021/07/21 08:27:04;;;;;;;2.23;1.60;;;37.50;44.30;;;;;;4994530;28;20741;-75
2021/07/21 08:29:29;;;;;;;1.93;1.20;;;37.30;43.60;;;;;;4995851;28;20189;-74
2021/07/21 08:31:55;;;;;;;2.03;1.00;;;37.10;43.70;;;;;;4995630;28;20249;-74
2021/07/21 08:34:21;;;;;;;1.73;1.40;;;37.10;45.00;;;;;;4994670;28;20289;-75
2021/07/21 08:36:47;;;;;;;2.13;1.40;;;37.20;43.70;;;;;;4994476;28;20186;-75
2021/07/21 08:39:13;;;;;;;1.60;1.30;;;37.10;43.60;;;;;;4995571;28;20193;-75
2021/07/21 08:41:40;;;;;;;3.10;1.50;;;37.20;44.20;;;;;;4994282;28;20205;-75
2021/07/21 08:44:07;;;;;;;2.20;1.63;;;37.40;44.00;;;;;;4996491;28;20612;-75
2021/07/21 08:46:36;;;;;;;1.50;1.10;;;37.20;43.00;;;;;;4995559;28;20636;-75
2021/07/21 08:49:02;;;;;;;4.00;1.50;;;37.40;43.70;;;;;;4995339;28;20601;-75
2021/07/21 08:51:29;;;;;;;2.47;1.40;;;37.50;43.80;;;;;;4994417;28;21034;-75
2021/07/21 08:53:55;;;;;;;2.10;1.33;;;37.50;42.30;;;;;;4995096;28;20202;-75
2021/07/21 08:56:21;;;;;;;1.60;1.17;;;37.70;43.20;;;;;;4995462;28;20660;-74
2021/07/21 08:58:48;;;;;;;2.60;1.97;;;38.10;42.80;;;;;;4993734;28;20708;-74
2021/07/21 09:01:16;;;;;;;1.73;1.10;;;38.10;41.90;;;;;;4994128;28;20622;-74
2021/07/21 09:03:43;;;;;;;2.03;1.50;;;38.10;41.70;;;;;;4995285;28;20633;-75
2021/07/21 09:06:10;;;;;;;2.53;1.60;;;38.30;41.60;;;;;;4996080;28;20924;-75
2021/07/21 09:08:36;;;;;;;3.33;1.40;;;38.60;41.40;;;;;;4995578;28;20602;-75
2021/07/21 09:11:03;;;;;;;2.10;1.70;;;38.70;41.30;;;;;;4996944;28;20616;-75
2021/07/21 09:13:32;;;;;;;2.53;1.53;;;38.70;40.40;;;;;;4995618;28;20633;-76
2021/07/21 09:15:59;;;;;;;3.23;1.80;;;38.60;40.50;;;;;;4996142;28;20590;-75
2021/07/21 09:18:28;;;;;;;2.10;1.43;;;38.40;40.00;;;;;;4993955;28;20985;-75
2021/07/21 09:20:56;;;;;;;2.23;2.03;;;38.50;39.70;;;;;;4996953;28;20570;-74
2021/07/21 09:23:47;;;;;;;2.10;1.67;;;38.50;39.50;;;;;;4994526;28;20735;-73
2021/07/21 09:26:34;;;;;;;3.83;2.37;;;38.80;39.80;;;;;;4993747;28;20577;-74
2021/07/21 09:29:01;;;;;;;1.77;1.47;;;38.90;39.80;;;;;;4992321;28;20602;-74
2021/07/21 09:31:30;;;;;;;1.93;1.73;;;39.00;40.00;;;;;;4996000;28;20558;-76
2021/07/21 09:33:56;;;;;;;1.93;1.73;;;39.10;39.30;;;;;;4993977;28;20578;-75
2021/07/21 09:36:22;;;;;;;2.00;1.80;;;39.00;39.30;;;;;;4997336;28;20569;-75
2021/07/21 09:38:51;;;;;;;2.27;1.93;;;39.10;39.40;;;;;;4995290;28;21153;-75
2021/07/21 09:41:17;;;;;;;2.67;2.13;;;39.40;39.60;;;;;;4995475;28;20627;-74
2021/07/21 09:43:43;;;;;;;2.63;1.73;;;39.50;37.60;;;;;;4995886;28;21010;-75
2021/07/21 09:46:12;;;;;;;2.40;2.20;;;39.30;37.90;;;;;;5009983;23;20715;-75
2021/07/21 09:48:46;;;;;;;2.53;2.07;;;39.20;38.20;;;;;;4988691;28;21249;-74
2021/07/21 09:51:26;;;;;;;2.57;2.23;;;39.00;37.30;;;;;;5013271;28;20929;-75
2021/07/21 09:53:52;;;;;;;4.63;2.00;;;38.60;37.10;;;;;;4975931;28;20609;-74
2021/07/21 09:56:29;;;;;;;3.33;2.07;;;37.70;37.20;;;;;;4993793;28;20693;-74
2021/07/21 09:59:14;;;;;;;5.53;1.80;;;37.60;38.40;;;;;;4993849;28;20174;-74
2021/07/21 10:01:40;;;;;;;2.13;1.83;;;37.70;39.10;;;;;;4944055;28;21157;-74
2021/07/21 10:04:06;;;;;;;2.23;1.97;;;37.90;39.00;;;;;;4993454;28;20626;-75
2021/07/21 10:06:39;;;;;;;2.20;2.00;;;38.20;38.80;;;;;;4993667;28;20183;-75
2021/07/21 10:09:05;;;;;;;2.63;2.33;;;38.30;38.30;;;;;;4995579;28;20514;-74
2021/07/21 10:11:34;;;;;;;2.47;2.27;;;38.10;38.50;;;;;;5012789;28;20568;-74
2021/07/21 10:14:03;;;;;;;2.53;1.80;;;38.10;38.10;;;;;;5013003;28;20661;-74
2021/07/21 10:16:42;;;;;;;2.10;1.80;;;38.00;38.00;;;;;;4995399;28;20604;-74
2021/07/21 10:19:14;;;;;;;2.67;2.23;;;37.70;37.80;;;;;;5012918;28;20568;-74
2021/07/21 10:21:44;;;;;;;2.10;1.90;;;37.70;38.00;;;;;;4995311;28;20585;-75
2021/07/21 10:24:10;;;;;;;3.90;2.70;;;37.70;38.50;;;;;;5017667;28;20636;-75
2021/07/21 10:26:38;;;;;;;2.23;2.03;;;37.80;38.10;;;;;;4995002;28;20624;-76
2021/07/21 10:29:06;;;;;;;2.80;2.33;;;37.60;38.20;;;;;;5013008;28;20609;-75
2021/07/21 10:31:33;;;;;;;3.70;2.30;;;37.60;38.20;;;;;;5012404;28;20577;-75
2021/07/21 10:33:59;;;;;;;3.30;2.67;;;37.90;39.00;;;;;;5027953;28;20589;-75
2021/07/21 10:36:26;;;;;;;2.50;2.17;;;38.30;39.50;;;;;;5027476;28;20617;-75
2021/07/21 10:38:52;;;;;;;2.50;2.27;;;38.80;39.30;;;;;;5011897;28;20704;-75
2021/07/21 10:41:19;;;;;;;2.83;2.07;;;39.10;38.40;;;;;;5011055;28;20613;-75
2021/07/21 10:43:52;;;;;;;2.73;2.23;;;39.50;38.90;;;;;;5011274;28;20731;-75
2021/07/21 10:46:39;;;;;;;2.57;2.37;;;39.90;38.30;;;;;;5010811;28;21044;-75
2021/07/21 10:49:37;;;;;;;3.60;2.70;;;40.10;35.80;;;;;;5011373;28;20696;-75
2021/07/21 10:55:18;;;;;;;4.40;3.40;;;39.10;35.00;;;;;;5012342;28;20585;-75
2021/07/21 11:00:47;;;;;;;2.97;2.67;;;38.50;36.40;;;;;;5016654;28;20565;-74
2021/07/21 11:03:28;;;;;;;3.10;2.80;;;38.20;37.40;;;;;;4994576;28;20712;-74
2021/07/21 11:06:12;;;;;;;3.97;2.83;;;38.10;37.50;;;;;;5027264;28;20967;-76
2021/07/21 11:08:48;;;;;;;2.60;2.40;;;38.00;37.10;;;;;;5012226;28;21047;-76
2021/07/21 11:11:21;;;;;;;2.97;2.70;;;37.80;38.00;;;;;;5011830;28;20597;-76
2021/07/21 11:13:56;;;;;;;3.10;2.90;;;38.00;38.10;;;;;;4994427;28;20616;-75
2021/07/21 11:16:46;;;;;;;3.17;2.97;;;38.20;38.00;;;;;;5011809;28;20600;-76
2021/07/21 11:19:24;;;;;;;2.77;2.57;;;38.30;37.80;;;;;;5011942;28;20565;-76
2021/07/21 11:21:55;;;;;;;3.40;3.10;;;38.40;36.60;;;;;;5012133;28;20625;-75
2021/07/21 11:24:21;;;;;;;3.20;2.90;;;38.50;37.10;;;;;;4994175;28;20577;-76
2021/07/21 11:26:51;;;;;;;3.43;3.10;;;38.40;36.90;;;;;;4993727;28;20592;-75
2021/07/21 11:29:23;;;;;;;3.33;3.03;;;38.30;37.70;;;;;;5011719;28;20249;-75
2021/07/21 11:31:48;;;;;;;2.50;2.30;;;38.30;37.70;;;;;;5011287;28;20570;-75
2021/07/21 11:34:35;;;;;;;3.70;3.40;;;38.20;37.40;;;;;;4994137;28;20565;-75
2021/07/21 11:37:17;;;;;;;3.53;3.23;;;38.10;37.00;;;;;;4997768;28;20202;-75
2021/07/21 11:39:55;;;;;;;3.40;3.10;;;37.70;37.40;;;;;;4993684;28;21114;-75
2021/07/21 11:42:27;;;;;;;4.50;3.23;;;37.40;37.10;;;;;;4993975;28;20612;-75
2021/07/21 11:45:02;;;;;;;3.30;3.10;;;37.00;37.10;;;;;;5011368;28;20921;-75
2021/07/21 11:47:56;;;;;;;4.27;3.17;;;36.70;37.40;;;;;;4993361;28;20988;-75
2021/07/21 11:50:25;;;;;;;4.07;3.73;;;36.50;38.30;;;;;;5007374;28;20596;-75
2021/07/21 11:52:58;;;;;;;4.97;3.33;;;36.40;39.20;;;;;;4993255;28;20580;-75
2021/07/21 11:55:26;;;;;;;4.13;3.73;;;36.30;38.70;;;;;;4993778;28;20675;-75
2021/07/21 11:57:53;;;;;;;3.70;3.40;;;36.10;38.80;;;;;;4993479;28;20947;-75
2021/07/21 12:00:24;;;;;;;3.53;3.23;;;35.80;38.80;;;;;;5011226;28;20628;-75
2021/07/21 12:03:03;;;;;;;4.47;4.07;;;35.50;38.60;;;;;;5010994;28;20963;-75
2021/07/21 12:05:30;;;;;;;3.63;3.07;;;35.30;38.70;;;;;;4993528;28;20601;-75
2021/07/21 12:08:05;;;;;;;4.27;3.77;;;35.10;38.80;;;;;;4993152;28;20599;-75
2021/07/21 12:10:33;;;;;;;4.23;3.83;;;34.80;38.60;;;;;;4977355;28;20572;-75
2021/07/21 12:13:10;;;;;;;4.20;3.80;;;34.40;38.60;;;;;;5013379;28;20595;-75
2021/07/21 12:15:36;;;;;;;4.20;3.80;;;34.10;39.10;;;;;;5011425;28;21147;-75
2021/07/21 12:18:16;;;;;;;4.77;4.30;;;33.80;39.50;;;;;;5011103;28;20689;-75
2021/07/21 12:20:44;;;;;;;3.73;3.43;;;33.50;39.70;;;;;;5011110;28;21048;-73
2021/07/21 12:23:10;;;;;;;4.90;4.50;;;33.30;39.80;;;;;;5010767;28;20977;-73
2021/07/21 12:25:36;;;;;;;4.67;4.23;;;33.00;39.70;;;;;;5011105;28;20940;-74
2021/07/21 12:28:02;;;;;;;5.03;4.63;;;32.70;39.90;;;;;;5010994;28;20558;-74
2021/07/21 12:30:36;;;;;;;5.30;3.90;;;32.40;39.90;;;;;;5011046;28;20228;-74
2021/07/21 12:33:02;;;;;;;4.10;3.70;;;32.20;40.20;;;;;;4993568;28;20581;-74
2021/07/21 12:35:29;;;;;;;5.30;4.80;;;32.00;41.20;;;;;;5010751;28;20918;-74
2021/07/21 12:37:58;;;;;;;5.40;4.87;;;32.00;42.00;;;;;;4993490;28;20580;-75
2021/07/21 12:40:27;;;;;;;6.30;5.70;;;31.80;41.90;;;;;;4993250;28;20577;-75
2021/07/21 12:42:57;;;;;;;6.20;5.40;;;31.40;41.90;;;;;;5011003;28;20616;-74
2021/07/21 12:45:25;;;;;;;4.47;4.07;;;31.30;42.00;;;;;;5010641;28;20673;-75
2021/07/21 12:47:57;;;;;;;5.07;4.20;;;31.30;42.60;;;;;;5010794;28;20566;-75
2021/07/21 12:50:27;;;;;;;4.73;4.33;;;31.30;43.30;;;;;;4995985;28;20624;-75
2021/07/21 12:53:05;;;;;;;4.50;4.10;;;31.30;42.90;;;;;;5010971;28;20669;-75
2021/07/21 12:55:34;;;;;;;4.77;4.37;;;31.20;42.90;;;;;;5010918;28;20582;-75
2021/07/21 12:58:03;;;;;;;4.83;4.33;;;31.20;43.10;;;;;;5010826;28;20600;-75
2021/07/21 13:00:30;;;;;;;5.30;4.80;;;31.10;43.00;;;;;;4993023;28;20609;-75
2021/07/21 13:03:16;;;;;;;4.00;3.70;;;31.00;42.80;;;;;;5012292;28;20699;-75
2021/07/21 13:05:47;;;;;;;5.10;4.33;;;30.80;42.90;;;;;;5014814;28;20597;-75
2021/07/21 13:08:19;;;;;;;4.47;4.07;;;30.80;43.10;;;;;;4996683;28;20589;-75
2021/07/21 13:10:46;;;;;;;5.67;4.00;;;30.70;43.50;;;;;;4996785;28;21081;-75
2021/07/21 13:13:26;;;;;;;4.47;4.07;;;30.60;43.60;;;;;;4996495;28;21059;-77
2021/07/21 13:16:07;;;;;;;7.20;4.33;;;30.50;43.70;;;;;;5013359;28;20744;-75
2021/07/21 13:18:37;;;;;;;4.97;4.47;;;30.50;43.70;;;;;;5013248;28;20593;-75